createdAt,value
2022-09-10T00:04:19.923Z,4.50
2022-09-10T00:09:21.460Z,3.70
2022-09-10T00:14:23.488Z,3.80
2022-09-10T00:19:25.120Z,4.10
2022-09-10T00:24:26.684Z,4.40
2022-09-10T00:29:28.276Z,4.40
2022-09-10T00:34:29.885Z,4.60
2022-09-10T00:39:31.747Z,4.00
2022-09-10T00:44:43.156Z,4.00
2022-09-10T00:49:46.948Z,3.60
2022-09-10T00:54:48.941Z,3.00
2022-09-10T00:59:53.659Z,2.90
2022-09-10T01:04:56.163Z,3.30
2022-09-10T01:09:59.275Z,2.50
2022-09-10T01:15:10.236Z,2.30
2022-09-10T01:25:14.333Z,2.10
2022-09-10T01:30:19.222Z,1.50
2022-09-10T01:35:27.860Z,1.70
2022-09-10T01:40:30.314Z,1.60
2022-09-10T01:45:45.647Z,2.00
2022-09-10T01:55:58.356Z,1.10
2022-09-10T02:01:07.748Z,1.20
2022-09-10T02:06:12.916Z,1.20
2022-09-10T02:11:16.147Z,1.30
2022-09-10T02:16:32.996Z,1.20
2022-09-10T02:21:35.747Z,1.10
2022-09-10T02:26:40.046Z,0.80
2022-09-10T02:31:42.262Z,0.90
2022-09-10T02:36:46.958Z,0.70
2022-09-10T02:41:48.902Z,1.20
2022-09-10T02:46:50.689Z,1.30
2022-09-10T02:51:52.394Z,1.20
2022-09-10T02:56:54.312Z,1.00
2022-09-10T03:01:56.370Z,1.00
2022-09-10T03:06:58.291Z,1.00
2022-09-10T03:12:00.724Z,1.30
2022-09-10T03:17:03.842Z,1.30
2022-09-10T03:22:05.545Z,1.30
2022-09-10T03:27:08.562Z,1.20
2022-09-10T03:32:10.801Z,1.20
2022-09-10T03:37:14.078Z,1.00
2022-09-10T03:42:16.851Z,1.10
2022-09-10T03:47:18.663Z,1.30
2022-09-10T03:52:22.681Z,1.60
2022-09-10T03:57:26.226Z,3.40
2022-09-10T04:02:27.943Z,2.90
2022-09-10T04:07:30.341Z,3.40
2022-09-10T04:12:32.097Z,3.70
2022-09-10T04:17:33.922Z,2.90
2022-09-10T04:22:35.622Z,3.50
2022-09-10T04:27:37.291Z,3.70
2022-09-10T04:32:39.269Z,3.40
2022-09-10T04:37:41.406Z,5.10
2022-09-10T04:42:44.395Z,3.10
2022-09-10T04:47:47.542Z,2.90
2022-09-10T04:52:49.304Z,2.80
2022-09-10T04:57:51.039Z,3.30
2022-09-10T05:02:52.758Z,3.20
2022-09-10T05:07:54.396Z,13.10
2022-09-10T05:12:55.988Z,3.90
2022-09-10T05:18:00.124Z,3.50
2022-09-10T05:23:02.534Z,3.80
2022-09-10T05:28:05.691Z,4.50
2022-09-10T05:33:07.584Z,3.60
2022-09-10T05:38:11.488Z,36.50
2022-09-10T05:43:14.873Z,6.50
2022-09-10T05:48:18.447Z,5.20
2022-09-10T05:53:20.020Z,8.30
2022-09-10T05:58:21.655Z,6.80
2022-09-10T06:03:23.521Z,5.20
2022-09-10T06:08:28.568Z,4.90
2022-09-10T06:13:31.295Z,3.00
2022-09-10T06:18:32.976Z,2.40
2022-09-10T06:23:36.257Z,2.90
2022-09-10T06:28:38.397Z,4.30
2022-09-10T06:33:41.228Z,5.40
2022-09-10T06:38:45.110Z,4.60
2022-09-10T06:43:47.607Z,3.60
2022-09-10T06:49:11.084Z,1.70
2022-09-10T06:54:13.251Z,2.60
2022-09-10T06:59:15.334Z,3.60
2022-09-10T07:04:19.607Z,6.20
2022-09-10T07:09:21.343Z,4.00
2022-09-10T07:14:27.373Z,5.20
2022-09-10T07:19:32.111Z,5.20
2022-09-10T07:24:34.377Z,3.30
2022-09-10T07:29:42.774Z,5.00
2022-09-10T07:34:50.773Z,4.10
2022-09-10T07:39:52.823Z,6.80
2022-09-10T07:44:55.125Z,5.70
2022-09-10T07:49:56.985Z,6.70
2022-09-10T07:54:58.736Z,6.70
2022-09-10T08:00:00.758Z,7.50
2022-09-10T08:05:17.001Z,8.90
2022-09-10T08:10:19.639Z,8.30
2022-09-10T08:15:23.680Z,7.90
2022-09-10T08:20:26.837Z,7.30
2022-09-10T08:25:28.969Z,8.10
2022-09-10T08:30:32.167Z,10.70
2022-09-10T08:35:34.414Z,11.90
2022-09-10T08:40:41.089Z,18.00
2022-09-10T08:45:46.897Z,16.30
2022-09-10T08:50:49.260Z,16.60
2022-09-10T08:55:57.808Z,17.00
2022-09-10T09:01:02.622Z,15.80
2022-09-10T09:06:08.016Z,16.00
2022-09-10T09:11:22.973Z,12.40
2022-09-10T09:16:44.598Z,8.50
2022-09-10T09:21:51.534Z,8.20
2022-09-10T09:27:01.935Z,10.60
2022-09-10T09:37:11.991Z,13.60
2022-09-10T09:42:32.757Z,11.70
2022-09-10T09:47:34.986Z,10.30
2022-09-10T09:52:38.674Z,10.00
2022-09-10T09:57:42.826Z,11.10
2022-09-10T10:02:47.134Z,9.90
2022-09-10T10:07:48.995Z,10.90
2022-09-10T10:12:50.496Z,10.90
2022-09-10T10:17:53.312Z,3.40
2022-09-10T10:22:54.854Z,3.60
2022-09-10T10:27:57.028Z,1.70
2022-09-10T10:32:59.639Z,1.60
2022-09-10T10:38:01.214Z,1.60
2022-09-10T10:43:08.873Z,1.50
2022-09-10T10:48:12.476Z,1.30
2022-09-10T10:53:36.122Z,1.00
2022-09-10T10:58:49.178Z,1.00
2022-09-10T11:03:57.284Z,0.70
2022-09-10T11:09:02.013Z,1.20
2022-09-10T11:14:06.597Z,1.00
2022-09-10T11:19:27.076Z,1.20
2022-09-10T11:29:42.176Z,1.00
2022-09-10T11:35:10.751Z,0.70
2022-09-10T11:40:24.623Z,0.60
2022-09-10T11:45:33.430Z,1.10
2022-09-10T11:50:47.268Z,0.70
2022-09-10T11:56:07.621Z,0.70
2022-09-10T12:01:09.239Z,0.70
2022-09-10T12:06:26.738Z,0.90
2022-09-10T12:11:35.426Z,0.90
2022-09-10T12:16:41.487Z,1.00
2022-09-10T12:21:48.638Z,2.00
2022-09-10T12:26:50.242Z,1.70
2022-09-10T12:32:12.275Z,1.50
2022-09-10T12:37:24.100Z,1.80
2022-09-10T12:42:27.698Z,1.40
2022-09-10T12:47:41.139Z,2.10
2022-09-10T12:52:51.650Z,2.10
2022-09-10T12:57:58.612Z,1.80
2022-09-10T13:03:20.555Z,1.60
2022-09-10T13:08:27.367Z,2.20
2022-09-10T13:13:33.743Z,2.50
2022-09-10T13:18:36.118Z,2.50
2022-09-10T13:23:44.985Z,2.40
2022-09-10T13:28:46.557Z,2.80
2022-09-10T13:33:51.911Z,2.20
2022-09-10T13:39:12.538Z,1.80
2022-09-10T13:44:28.180Z,2.30
2022-09-10T13:49:39.837Z,1.30
2022-09-10T13:54:43.447Z,2.10
2022-09-10T13:59:48.497Z,2.00
2022-09-10T14:04:51.756Z,1.00
2022-09-10T14:09:56.690Z,0.70
2022-09-10T14:15:00.192Z,0.80
2022-09-10T14:20:05.601Z,1.00
2022-09-10T14:25:09.165Z,1.00
2022-09-10T14:30:23.804Z,1.10
2022-09-10T14:35:43.033Z,1.30
2022-09-10T14:40:47.559Z,1.80
2022-09-10T14:45:49.905Z,1.90
2022-09-10T14:51:01.812Z,2.70
2022-09-10T14:56:04.310Z,3.20
2022-09-10T15:01:05.957Z,3.60
2022-09-10T15:06:09.595Z,3.90
2022-09-10T15:11:19.037Z,3.80
2022-09-10T15:16:20.638Z,1.80
2022-09-10T15:21:23.026Z,2.60
2022-09-10T15:26:25.444Z,1.20
2022-09-10T15:31:30.790Z,1.30
2022-09-10T15:36:35.444Z,1.20
2022-09-10T15:41:40.884Z,1.20
2022-09-10T15:46:45.412Z,1.70
2022-09-10T15:51:47.096Z,1.50
2022-09-10T15:56:48.656Z,1.10
2022-09-10T16:01:50.249Z,1.20
2022-09-10T16:06:52.075Z,1.00
2022-09-10T16:11:53.745Z,1.20
2022-09-10T16:16:55.390Z,1.40
2022-09-10T16:21:57.235Z,1.90
2022-09-10T16:26:58.793Z,1.60
2022-09-10T16:32:00.350Z,2.10
2022-09-10T16:37:03.388Z,1.30
2022-09-10T16:42:04.975Z,1.30
2022-09-10T16:47:06.811Z,2.20
2022-09-10T16:52:08.406Z,2.40
2022-09-10T16:57:10.220Z,2.60
2022-09-10T17:02:12.199Z,3.20
2022-09-10T17:07:13.891Z,3.20
2022-09-10T17:12:15.445Z,3.50
2022-09-10T17:17:17.139Z,4.70
2022-09-10T17:22:18.795Z,0.90
2022-09-10T17:27:24.795Z,1.50
2022-09-10T17:32:27.127Z,1.50
2022-09-10T17:37:28.628Z,2.10
2022-09-10T17:42:30.313Z,2.20
2022-09-10T17:47:33.226Z,1.20
2022-09-10T17:52:35.422Z,1.20
2022-09-10T17:57:36.900Z,1.00
2022-09-10T18:02:38.669Z,1.20
2022-09-10T18:07:40.541Z,1.00
2022-09-10T18:12:42.320Z,1.40
2022-09-10T18:17:44.463Z,1.60
2022-09-10T18:22:46.348Z,1.60
2022-09-10T18:27:48.578Z,1.80
2022-09-10T18:32:52.395Z,2.30
2022-09-10T18:37:54.381Z,2.40
2022-09-10T18:42:55.904Z,2.70
2022-09-10T18:47:57.729Z,2.50
2022-09-10T18:52:59.405Z,2.50
2022-09-10T18:58:01.896Z,2.90
2022-09-10T19:03:04.804Z,3.40
2022-09-10T19:08:06.682Z,3.40
2022-09-10T19:13:09.860Z,4.00
2022-09-10T19:18:11.567Z,4.50
2022-09-10T19:23:13.176Z,5.50
2022-09-10T19:28:14.815Z,5.00
2022-09-10T19:33:16.899Z,5.80
2022-09-10T19:38:36.669Z,5.80
2022-09-10T19:43:40.424Z,5.20
2022-09-10T19:48:42.811Z,5.50
2022-09-10T19:53:45.563Z,5.20
2022-09-10T19:58:49.814Z,7.10
2022-09-10T20:03:52.115Z,10.90
2022-09-10T20:08:53.809Z,11.60
2022-09-10T20:13:59.922Z,9.30
2022-09-10T20:19:04.111Z,9.60
2022-09-10T20:24:06.398Z,9.20
2022-09-10T20:29:10.408Z,9.30
2022-09-10T20:34:13.564Z,9.40
2022-09-10T20:39:17.160Z,13.40
2022-09-10T20:44:20.780Z,14.70
2022-09-10T20:49:22.447Z,14.30
2022-09-10T20:54:23.955Z,12.70
2022-09-10T20:59:27.672Z,7.50
2022-09-10T21:04:29.548Z,7.50
2022-09-10T21:09:31.008Z,8.20
2022-09-10T21:14:32.956Z,7.60
2022-09-10T21:19:34.412Z,7.20
2022-09-10T21:24:35.980Z,8.20
2022-09-10T21:29:37.486Z,8.20
2022-09-10T21:34:40.508Z,7.30
2022-09-10T21:39:42.077Z,8.20
2022-09-10T21:44:43.617Z,7.60
2022-09-10T21:49:45.168Z,7.30
2022-09-10T21:54:46.796Z,7.10
2022-09-10T21:59:48.841Z,7.90
2022-09-10T22:04:50.329Z,6.70
2022-09-10T22:09:51.798Z,6.30
2022-09-10T22:14:53.912Z,6.80
2022-09-10T22:19:55.412Z,7.10
2022-09-10T22:24:56.996Z,6.50
2022-09-10T22:29:59.118Z,6.00
2022-09-10T22:35:00.611Z,7.00
2022-09-10T22:40:02.977Z,6.40
2022-09-10T22:45:04.848Z,7.20
2022-09-10T22:50:06.464Z,8.50
2022-09-10T22:55:08.395Z,7.30
2022-09-10T23:00:13.788Z,8.20
2022-09-10T23:05:15.390Z,6.60
2022-09-10T23:10:17.201Z,7.00
2022-09-10T23:15:18.683Z,6.70
2022-09-10T23:20:20.288Z,6.10
2022-09-10T23:25:21.876Z,6.20
2022-09-10T23:30:41.969Z,6.30
2022-09-10T23:35:49.852Z,6.50
2022-09-10T23:40:51.852Z,5.80
2022-09-10T23:45:54.655Z,6.10
2022-09-10T23:50:57.198Z,5.50
2022-09-10T23:55:59.255Z,5.00
